createdAt,value
2018-08-06T00:00:01.431Z,99.90
2018-08-06T00:03:09.330Z,99.90
2018-08-06T00:05:37.447Z,99.90
2018-08-06T00:08:06.164Z,99.90
2018-08-06T00:10:42.306Z,99.90
2018-08-06T00:13:30.867Z,99.90
2018-08-06T00:15:58.993Z,99.90
2018-08-06T00:18:26.886Z,99.90
2018-08-06T00:20:55.091Z,99.90
2018-08-06T00:23:23.043Z,99.90
2018-08-06T00:25:51.456Z,99.90
2018-08-06T00:28:19.513Z,99.90
2018-08-06T00:30:47.766Z,99.90
2018-08-06T00:33:15.618Z,99.90
2018-08-06T00:38:11.613Z,99.90
2018-08-06T00:40:40.026Z,99.90
2018-08-06T00:43:07.962Z,99.90
2018-08-06T00:45:35.992Z,99.90
2018-08-06T00:48:03.926Z,99.90
2018-08-06T00:50:32.339Z,99.90
2018-08-06T00:53:00.437Z,99.90
2018-08-06T00:55:28.346Z,99.90
2018-08-06T00:57:56.242Z,99.90
2018-08-06T01:00:24.188Z,99.90
2018-08-06T01:02:52.047Z,99.90
2018-08-06T01:05:20.172Z,99.90
2018-08-06T01:07:48.084Z,99.90
2018-08-06T01:10:17.551Z,99.90
2018-08-06T01:12:45.561Z,99.90
2018-08-06T01:15:16.804Z,99.90
2018-08-06T01:20:21.850Z,99.90
2018-08-06T01:22:50.314Z,99.90
2018-08-06T01:29:00.367Z,99.90
2018-08-06T01:31:28.364Z,99.90
2018-08-06T01:33:56.460Z,99.90
2018-08-06T01:36:24.322Z,99.90
2018-08-06T01:38:52.133Z,99.90
2018-08-06T01:44:30.408Z,99.90
2018-08-06T01:51:08.941Z,99.90
2018-08-06T01:59:22.818Z,99.90
2018-08-06T02:01:56.781Z,99.90
2018-08-06T02:04:24.921Z,99.90
2018-08-06T02:07:32.019Z,99.90
2018-08-06T02:10:00.160Z,99.90
2018-08-06T02:12:39.135Z,99.90
2018-08-06T02:15:08.224Z,99.90
2018-08-06T02:18:06.580Z,99.90
2018-08-06T02:20:34.464Z,99.90
2018-08-06T02:23:02.466Z,99.90
2018-08-06T02:25:30.262Z,99.90
2018-08-06T02:27:58.164Z,99.90
2018-08-06T02:30:26.001Z,99.90
2018-08-06T02:32:53.899Z,99.90
2018-08-06T02:35:21.692Z,99.90
2018-08-06T02:37:49.466Z,99.90
2018-08-06T02:40:19.605Z,99.90
2018-08-06T02:42:47.654Z,99.90
2018-08-06T02:45:15.925Z,99.90
2018-08-06T02:47:43.762Z,99.90
2018-08-06T02:55:47.694Z,99.90
2018-08-06T02:58:15.579Z,99.90
2018-08-06T03:00:43.558Z,99.90
2018-08-06T03:03:11.438Z,99.90
2018-08-06T03:05:39.349Z,99.90
2018-08-06T03:08:07.258Z,99.90
2018-08-06T03:10:35.212Z,99.90
2018-08-06T03:13:03.158Z,99.90
2018-08-06T03:15:31.207Z,99.90
2018-08-06T03:17:59.035Z,99.90
2018-08-06T03:20:26.950Z,99.90
2018-08-06T03:22:54.830Z,99.90
2018-08-06T03:25:22.831Z,99.90
2018-08-06T03:27:50.728Z,99.90
2018-08-06T03:30:18.639Z,99.90
2018-08-06T03:32:47.718Z,99.90
2018-08-06T03:35:15.790Z,99.90
2018-08-06T03:37:43.738Z,99.90
2018-08-06T03:40:11.797Z,99.90
2018-08-06T03:42:39.788Z,99.90
2018-08-06T03:45:09.292Z,99.90
2018-08-06T03:47:37.292Z,99.90
2018-08-06T03:50:06.189Z,99.90
2018-08-06T03:52:34.043Z,99.90
2018-08-06T03:55:02.016Z,99.90
2018-08-06T03:57:37.061Z,99.90
2018-08-06T04:00:06.670Z,99.90
2018-08-06T04:02:35.500Z,99.90
2018-08-06T04:05:04.142Z,99.90
2018-08-06T04:07:31.965Z,99.90
2018-08-06T04:09:59.779Z,99.90
2018-08-06T04:12:27.578Z,99.90
2018-08-06T04:14:55.441Z,99.90
2018-08-06T04:17:24.247Z,99.90
2018-08-06T04:19:52.024Z,99.90
2018-08-06T04:22:20.854Z,99.90
2018-08-06T04:24:48.673Z,99.90
2018-08-06T04:27:16.431Z,99.90
2018-08-06T04:30:04.310Z,99.90
2018-08-06T04:32:32.116Z,99.90
2018-08-06T04:35:00.916Z,99.90
2018-08-06T04:37:28.744Z,99.90
2018-08-06T04:39:56.504Z,99.90
2018-08-06T04:42:24.297Z,99.90
2018-08-06T04:44:52.050Z,99.90
2018-08-06T04:50:02.469Z,99.90
2018-08-06T04:52:31.279Z,99.90
2018-08-06T04:55:25.545Z,99.90
2018-08-06T04:57:53.362Z,99.90
2018-08-06T05:00:21.190Z,99.90
2018-08-06T05:02:49.035Z,99.90
2018-08-06T05:05:37.776Z,99.90
2018-08-06T05:08:05.713Z,99.90
2018-08-06T05:10:33.475Z,99.90
2018-08-06T05:34:40.370Z,99.90
2018-08-06T05:37:29.427Z,99.90
2018-08-06T05:39:57.398Z,99.90
2018-08-06T06:00:19.707Z,99.90
2018-08-06T06:17:08.289Z,99.60
2018-08-06T06:19:36.106Z,98.80
2018-08-06T06:22:04.000Z,98.90
2018-08-06T06:24:31.856Z,99.00
2018-08-06T06:26:59.769Z,99.30
2018-08-06T06:29:27.908Z,98.60
2018-08-06T06:35:04.202Z,98.80
2018-08-06T06:55:29.252Z,94.90
2018-08-06T07:15:51.761Z,93.30
2018-08-06T07:36:14.643Z,90.30
2018-08-06T07:38:42.667Z,90.10
2018-08-06T07:41:12.493Z,89.20
2018-08-06T07:43:40.404Z,90.10
2018-08-06T07:46:08.356Z,89.20
2018-08-06T07:48:36.272Z,88.70
2018-08-06T07:51:05.406Z,88.90
2018-08-06T07:53:33.219Z,86.00
2018-08-06T07:56:03.015Z,87.50
2018-08-06T07:58:30.832Z,83.80
2018-08-06T08:00:58.734Z,85.20
2018-08-06T08:03:46.186Z,84.60
2018-08-06T08:06:14.099Z,83.70
2018-08-06T08:08:41.969Z,82.30
2018-08-06T08:11:09.796Z,82.70
2018-08-06T08:13:37.585Z,83.20
2018-08-06T08:16:05.674Z,80.20
2018-08-06T08:18:34.463Z,79.00
2018-08-06T08:21:02.316Z,77.10
2018-08-06T08:23:30.178Z,78.90
2018-08-06T08:25:58.019Z,77.90
2018-08-06T08:28:25.823Z,77.10
2018-08-06T08:30:53.682Z,77.30
2018-08-06T08:33:21.498Z,77.80
2018-08-06T08:36:11.036Z,75.50
2018-08-06T08:38:39.227Z,75.40
2018-08-06T08:41:08.735Z,76.60
2018-08-06T08:43:37.116Z,74.40
2018-08-06T08:46:06.012Z,73.90
2018-08-06T08:48:34.381Z,71.60
2018-08-06T08:51:02.657Z,69.20
2018-08-06T08:53:37.577Z,66.90
2018-08-06T08:56:05.622Z,69.50
2018-08-06T08:58:33.529Z,67.30
2018-08-06T09:01:01.403Z,66.30
2018-08-06T09:03:29.294Z,66.90
2018-08-06T09:05:57.122Z,64.90
2018-08-06T09:08:24.890Z,64.70
2018-08-06T09:10:52.699Z,65.30
2018-08-06T09:13:20.483Z,62.90
2018-08-06T09:15:48.524Z,64.20
2018-08-06T09:18:16.534Z,64.10
2018-08-06T09:20:44.463Z,63.60
2018-08-06T09:23:12.463Z,64.70
2018-08-06T09:25:40.452Z,63.40
2018-08-06T09:28:09.397Z,61.00
2018-08-06T09:30:37.250Z,61.10
2018-08-06T09:33:05.289Z,60.20
2018-08-06T09:35:33.294Z,60.00
2018-08-06T09:38:01.325Z,61.60
2018-08-06T09:40:29.295Z,61.00
2018-08-06T09:42:57.219Z,57.80
2018-08-06T09:45:25.200Z,59.50
2018-08-06T09:47:53.934Z,59.30
2018-08-06T09:50:22.230Z,58.20
2018-08-06T09:52:52.122Z,57.30
2018-08-06T09:55:22.421Z,57.90
2018-08-06T09:57:50.644Z,58.50
2018-08-06T10:00:26.030Z,55.90
2018-08-06T10:02:55.162Z,55.00
2018-08-06T10:05:25.731Z,55.00
2018-08-06T10:07:53.893Z,55.40
2018-08-06T10:10:21.918Z,55.30
2018-08-06T10:12:49.890Z,52.50
2018-08-06T10:15:18.275Z,54.70
2018-08-06T10:17:47.351Z,54.40
2018-08-06T10:20:17.518Z,52.70
2018-08-06T10:22:45.407Z,51.50
2018-08-06T10:25:14.399Z,50.40
2018-08-06T10:27:43.969Z,51.90
2018-08-06T10:30:15.603Z,52.30
2018-08-06T10:33:09.865Z,50.90
2018-08-06T10:35:37.837Z,52.00
2018-08-06T10:38:05.725Z,53.00
2018-08-06T10:40:33.539Z,51.90
2018-08-06T10:45:49.001Z,51.00
2018-08-06T10:48:18.119Z,50.50
2018-08-06T10:50:45.895Z,50.10
2018-08-06T10:53:13.760Z,49.10
2018-08-06T10:55:41.580Z,48.40
2018-08-06T10:58:09.434Z,48.20
2018-08-06T11:00:37.250Z,49.80
2018-08-06T11:03:05.205Z,49.70
2018-08-06T11:05:32.965Z,48.40
2018-08-06T11:08:00.852Z,49.40
2018-08-06T11:10:28.656Z,48.60
2018-08-06T11:12:58.135Z,47.90
2018-08-06T11:15:26.401Z,46.10
2018-08-06T11:17:54.373Z,48.50
2018-08-06T11:20:23.912Z,47.50
2018-08-06T11:22:51.761Z,47.90
2018-08-06T11:25:20.881Z,48.90
2018-08-06T11:27:48.891Z,48.70
2018-08-06T11:30:18.635Z,49.00
2018-08-06T11:32:47.248Z,49.40
2018-08-06T11:35:15.593Z,49.50
2018-08-06T11:37:43.573Z,50.60
2018-08-06T11:40:12.530Z,50.20
2018-08-06T11:42:41.114Z,51.00
2018-08-06T11:45:11.806Z,50.30
2018-08-06T11:47:39.654Z,48.40
2018-08-06T11:50:08.152Z,49.00
2018-08-06T11:52:35.988Z,48.60
2018-08-06T11:55:04.476Z,47.10
2018-08-06T11:57:32.323Z,46.10
2018-08-06T12:00:00.397Z,44.50
2018-08-06T12:02:28.290Z,43.40
2018-08-06T12:04:57.206Z,43.40
2018-08-06T12:07:42.181Z,42.40
2018-08-06T12:12:59.254Z,42.30
2018-08-06T12:15:27.044Z,42.00
2018-08-06T12:17:54.829Z,41.50
2018-08-06T12:20:25.362Z,40.60
2018-08-06T12:22:53.167Z,41.70
2018-08-06T12:25:22.101Z,41.90
2018-08-06T12:27:50.123Z,41.80
2018-08-06T12:30:20.205Z,41.00
2018-08-06T12:32:48.838Z,41.10
2018-08-06T12:35:17.128Z,41.40
2018-08-06T12:37:45.524Z,41.70
2018-08-06T12:40:15.565Z,40.00
2018-08-06T12:42:44.595Z,41.80
2018-08-06T12:45:40.836Z,41.40
2018-08-06T12:51:02.844Z,40.20
2018-08-06T12:53:30.733Z,39.20
2018-08-06T12:55:59.695Z,40.20
2018-08-06T12:58:27.558Z,40.40
2018-08-06T13:00:55.304Z,40.20
2018-08-06T13:03:23.089Z,40.10
2018-08-06T13:06:09.588Z,39.10
2018-08-06T13:08:37.318Z,38.10
2018-08-06T13:11:05.459Z,37.70
2018-08-06T13:13:33.260Z,36.80
2018-08-06T13:16:01.113Z,37.80
2018-08-06T13:18:29.937Z,37.30
2018-08-06T13:20:57.760Z,36.60
2018-08-06T13:23:25.668Z,37.00
2018-08-06T13:25:53.562Z,37.00
2018-08-06T13:28:45.565Z,35.90
2018-08-06T13:31:13.531Z,35.20
2018-08-06T13:33:42.242Z,36.20
2018-08-06T13:36:10.134Z,36.70
2018-08-06T13:38:47.866Z,37.10
2018-08-06T13:41:36.659Z,37.20
2018-08-06T13:44:04.554Z,37.00
2018-08-06T13:46:32.496Z,35.80
2018-08-06T13:49:00.312Z,34.30
2018-08-06T13:51:28.285Z,35.60
2018-08-06T13:53:56.079Z,37.00
2018-08-06T13:56:23.989Z,37.10
2018-08-06T13:58:51.882Z,35.90
2018-08-06T14:01:19.802Z,36.50
2018-08-06T14:03:47.647Z,34.70
2018-08-06T14:06:15.539Z,35.10
2018-08-06T14:08:43.526Z,34.00
2018-08-06T14:11:12.493Z,33.60
2018-08-06T14:13:40.361Z,33.70
2018-08-06T14:16:08.257Z,34.30
2018-08-06T14:18:36.084Z,36.00
2018-08-06T14:21:05.054Z,37.40
2018-08-06T14:23:32.943Z,36.90
2018-08-06T14:26:01.079Z,35.70
2018-08-06T14:29:19.639Z,36.10
2018-08-06T14:31:47.552Z,37.40
2018-08-06T14:34:16.601Z,38.30
2018-08-06T14:36:44.429Z,38.00
2018-08-06T14:39:12.699Z,38.90
2018-08-06T14:41:40.723Z,39.80
2018-08-06T14:44:09.216Z,40.90
2018-08-06T14:46:37.936Z,41.00
2018-08-06T14:49:06.340Z,41.00
2018-08-06T14:51:34.137Z,40.60
2018-08-06T14:54:02.127Z,41.30
2018-08-06T14:56:30.001Z,40.60
2018-08-06T14:58:57.841Z,40.00
2018-08-06T15:01:25.783Z,40.20
2018-08-06T15:03:53.708Z,40.20
2018-08-06T15:06:21.929Z,40.90
2018-08-06T15:08:49.977Z,41.10
2018-08-06T15:11:17.994Z,40.80
2018-08-06T15:14:00.150Z,41.00
2018-08-06T15:16:27.985Z,42.10
2018-08-06T15:18:55.811Z,41.90
2018-08-06T15:21:23.584Z,42.20
2018-08-06T15:23:51.398Z,43.90
2018-08-06T15:26:27.764Z,44.10
2018-08-06T15:28:55.707Z,44.50
2018-08-06T15:31:23.651Z,44.50
2018-08-06T15:33:52.100Z,45.60
2018-08-06T15:36:20.917Z,45.60
2018-08-06T15:38:48.761Z,46.10
2018-08-06T15:41:16.533Z,46.40
2018-08-06T15:43:44.411Z,46.40
2018-08-06T15:46:12.223Z,46.90
2018-08-06T15:48:39.988Z,47.30
2018-08-06T15:51:07.885Z,47.40
2018-08-06T15:53:35.659Z,47.30
2018-08-06T15:56:03.636Z,48.50
2018-08-06T15:58:31.460Z,48.50
2018-08-06T16:00:59.277Z,47.80
2018-08-06T16:03:27.121Z,48.30
2018-08-06T16:05:54.986Z,48.40
2018-08-06T16:08:22.815Z,48.30
2018-08-06T16:14:35.965Z,48.80
2018-08-06T16:17:04.967Z,49.20
2018-08-06T16:19:32.918Z,49.60
2018-08-06T16:22:01.856Z,49.30
2018-08-06T16:24:29.769Z,49.40
2018-08-06T16:26:58.736Z,49.50
2018-08-06T16:29:26.686Z,49.80
2018-08-06T16:31:56.709Z,50.80
2018-08-06T16:34:24.650Z,50.90
2018-08-06T16:36:54.285Z,51.40
2018-08-06T16:39:22.530Z,51.20
2018-08-06T16:41:52.671Z,51.70
2018-08-06T16:44:20.874Z,51.80
2018-08-06T16:46:49.007Z,52.10
2018-08-06T16:49:16.987Z,52.40
2018-08-06T16:51:46.009Z,52.40
2018-08-06T16:54:13.938Z,52.30
2018-08-06T16:56:42.955Z,53.00
2018-08-06T16:59:10.898Z,52.70
2018-08-06T17:01:38.819Z,52.70
2018-08-06T17:04:06.715Z,52.90
2018-08-06T17:06:34.631Z,53.10
2018-08-06T17:09:02.777Z,53.00
2018-08-06T17:13:56.201Z,55.10
2018-08-06T17:16:24.150Z,55.50
2018-08-06T17:18:52.104Z,55.80
2018-08-06T17:21:19.924Z,55.90
2018-08-06T17:23:47.801Z,55.90
2018-08-06T17:26:15.584Z,56.50
2018-08-06T17:28:44.435Z,56.10
2018-08-06T17:31:12.204Z,55.90
2018-08-06T17:33:40.992Z,55.30
2018-08-06T17:36:08.764Z,55.60
2018-08-06T17:38:36.586Z,56.20
2018-08-06T17:41:04.424Z,56.70
2018-08-06T17:43:32.263Z,56.70
2018-08-06T17:46:00.026Z,57.20
2018-08-06T17:48:28.873Z,57.60
2018-08-06T17:50:56.676Z,57.90
2018-08-06T17:53:24.493Z,57.30
2018-08-06T17:56:09.457Z,57.60
2018-08-06T17:58:37.327Z,57.80
2018-08-06T18:01:05.207Z,58.00
2018-08-06T18:03:33.081Z,58.00
2018-08-06T18:06:01.000Z,58.50
2018-08-06T18:08:28.828Z,58.00
2018-08-06T18:10:56.594Z,58.00
2018-08-06T18:13:26.169Z,58.40
2018-08-06T18:15:53.979Z,59.10
2018-08-06T18:18:21.939Z,59.00
2018-08-06T18:20:49.755Z,59.40
2018-08-06T18:23:17.532Z,59.70
2018-08-06T18:25:46.029Z,60.00
2018-08-06T18:28:13.873Z,60.00
2018-08-06T18:30:41.911Z,60.30
2018-08-06T18:33:09.695Z,60.90
2018-08-06T18:35:37.453Z,61.20
2018-08-06T18:38:06.295Z,61.70
2018-08-06T18:40:34.207Z,62.30
2018-08-06T18:43:02.142Z,62.30
2018-08-06T18:45:29.944Z,62.60
2018-08-06T18:47:58.216Z,63.30
2018-08-06T18:50:26.084Z,64.20
2018-08-06T18:52:53.844Z,65.00
2018-08-06T18:55:21.668Z,65.60
2018-08-06T18:57:49.534Z,66.20
2018-08-06T19:00:21.198Z,66.90
2018-08-06T19:02:49.067Z,67.90
2018-08-06T19:05:17.010Z,69.10
2018-08-06T19:07:44.750Z,69.80
2018-08-06T19:10:12.662Z,70.90
2018-08-06T19:12:46.062Z,72.10
2018-08-06T19:15:14.166Z,71.50
2018-08-06T19:17:47.595Z,72.90
2018-08-06T19:20:15.797Z,73.70
2018-08-06T19:22:44.799Z,76.30
2018-08-06T19:25:18.187Z,78.10
2018-08-06T19:27:45.991Z,80.60
2018-08-06T19:30:13.852Z,80.40
2018-08-06T19:32:41.783Z,81.40
2018-08-06T19:35:10.610Z,82.40
2018-08-06T19:37:43.935Z,82.80
2018-08-06T19:40:11.890Z,84.70
2018-08-06T19:42:45.636Z,85.00
2018-08-06T19:45:13.748Z,86.80
2018-08-06T19:47:42.273Z,85.50
2018-08-06T19:50:15.667Z,88.60
2018-08-06T19:52:43.517Z,89.50
2018-08-06T19:55:16.914Z,90.00
2018-08-06T19:57:44.772Z,91.20
2018-08-06T20:00:14.113Z,91.70
2018-08-06T20:02:43.017Z,91.10
2018-08-06T20:05:10.868Z,92.80
2018-08-06T20:07:38.730Z,92.70
2018-08-06T20:10:08.218Z,92.60
2018-08-06T20:12:36.053Z,93.30
2018-08-06T20:15:06.172Z,93.40
2018-08-06T20:21:19.545Z,93.70
2018-08-06T20:24:29.579Z,94.30
2018-08-06T20:27:02.842Z,94.30
2018-08-06T20:33:45.662Z,95.70
2018-08-06T20:39:54.326Z,95.80
2018-08-06T20:42:23.062Z,98.30
2018-08-06T20:44:52.713Z,98.00
2018-08-06T20:47:22.424Z,98.70
2018-08-06T20:49:53.648Z,98.50
2018-08-06T20:52:22.751Z,98.30
2018-08-06T20:54:51.937Z,97.30
2018-08-06T20:57:20.750Z,97.70
2018-08-06T20:59:50.888Z,99.20
2018-08-06T21:02:19.875Z,97.80
2018-08-06T21:04:51.011Z,97.80
2018-08-06T21:07:21.480Z,99.90
2018-08-06T21:09:52.056Z,99.40
2018-08-06T21:12:21.416Z,99.70
2018-08-06T21:14:53.313Z,98.70
2018-08-06T21:18:00.854Z,97.90
2018-08-06T21:20:28.828Z,98.00
2018-08-06T21:22:56.661Z,99.90
2018-08-06T21:25:24.680Z,99.90
2018-08-06T21:27:52.603Z,99.90
2018-08-06T21:30:21.206Z,99.90
2018-08-06T21:32:53.270Z,99.90
2018-08-06T21:35:21.983Z,99.90
2018-08-06T21:37:50.879Z,99.90
2018-08-06T21:40:19.392Z,99.90
2018-08-06T21:42:47.715Z,99.90
2018-08-06T21:45:15.642Z,99.50
2018-08-06T21:47:43.750Z,99.90
2018-08-06T21:50:12.198Z,99.90
2018-08-06T21:52:41.045Z,99.90
2018-08-06T21:55:09.480Z,99.90
2018-08-06T21:57:38.332Z,99.90
2018-08-06T22:00:42.835Z,99.90
2018-08-06T22:03:15.135Z,99.90
2018-08-06T22:05:43.229Z,99.90
2018-08-06T22:08:11.146Z,99.90
2018-08-06T22:10:39.203Z,99.90
2018-08-06T22:13:09.007Z,99.90
2018-08-06T22:15:37.012Z,99.90
2018-08-06T22:18:05.256Z,99.90
2018-08-06T22:20:33.087Z,99.90
2018-08-06T22:23:00.916Z,99.90
2018-08-06T22:25:28.723Z,99.90
2018-08-06T22:27:56.603Z,99.90
2018-08-06T22:30:24.428Z,99.90
2018-08-06T22:32:52.439Z,99.90
2018-08-06T22:35:20.297Z,99.90
2018-08-06T22:37:48.144Z,99.90
2018-08-06T22:40:17.093Z,99.90
2018-08-06T22:42:44.863Z,99.90
2018-08-06T22:45:12.915Z,99.90
2018-08-06T22:47:41.620Z,99.90
2018-08-06T22:50:10.887Z,99.90
2018-08-06T22:52:39.010Z,99.90
2018-08-06T22:58:27.160Z,99.90
2018-08-06T23:00:55.189Z,99.90
2018-08-06T23:03:23.087Z,99.90
2018-08-06T23:05:51.024Z,99.90
2018-08-06T23:08:18.910Z,99.90
2018-08-06T23:10:46.979Z,99.90
2018-08-06T23:13:14.898Z,99.90
2018-08-06T23:15:42.883Z,99.90
2018-08-06T23:18:10.893Z,99.90
2018-08-06T23:20:38.880Z,99.90
2018-08-06T23:23:06.854Z,99.90
2018-08-06T23:25:34.915Z,99.90
2018-08-06T23:28:02.912Z,99.90
2018-08-06T23:30:30.943Z,99.90
2018-08-06T23:32:58.914Z,99.90
2018-08-06T23:35:26.871Z,99.90
2018-08-06T23:37:54.791Z,99.90
2018-08-06T23:40:22.861Z,99.90
2018-08-06T23:42:50.749Z,99.90
2018-08-06T23:45:18.731Z,99.90
2018-08-06T23:47:46.614Z,99.90
2018-08-06T23:50:15.083Z,99.90
2018-08-06T23:52:44.054Z,99.90
2018-08-06T23:55:13.405Z,99.90
2018-08-06T23:57:41.503Z,99.90
